^^
Station Historical Data
Daily Summary for January 04, 2018 Units:  Both    English   Metric
« Previous Day
Next Day »
Daily Weekly Monthly Yearly Custom
  High: Low: Average:
Temperature: TemperatureF °F /  -17.8 °C 73.9 °F /  23.3 °C 94.4 °F /  34.7 °C
Dew Point: DewpointF °F /  -17.8 °C 23.0 °F /  -5 °C 31.4 °F /  -0.3 °C
Humidity: Humidity% 6% 12%
Wind Speed: WindSpeedMPHmph /  0km/h - 3.3mph /  5.3km/h
Wind Gust: WindSpeedGustMPHmph /  0km/h - -
Wind- - SW
Pressure: PressureIn in /  0 hPa 29.64 in /  1003.6 hPa -
Precipitation: 0.00 in /  0 mm    
Historical Graphs
 
 
Tabular Data for January 04, 2018
Time Temperature Dew Point Pressure Wind Wind Speed Wind Gust Humidity Rainfall Rate (Hourly) solar Conditions
TemperatureF °F /  -17.8 °C DewpointF °F /  -17.8 °C PressureInin /  0hPa Calm     Humidity% HourlyPrecipInin /  0mm SolarRadiationWatts/m^2 W/m2 Conditions
00:13 73.9 °F /  23.3 °C 31.5 °F /  -0.3 °C 29.80in /  1009hPa Calm     21% 0.00in /  0mm 172.0 W/m2
00:23 76.3 °F /  24.6 °C 32.2 °F /  0.1 °C 29.80in /  1009hPa Calm     20% 0.00in /  0mm 237.0 W/m2
00:34 77.7 °F /  25.4 °C 32.2 °F /  0.1 °C 29.80in /  1009hPa Calm     19% 0.00in /  0mm 278.0 W/m2
00:55 79.5 °F /  26.4 °C 32.4 °F /  0.2 °C 29.81in /  1009.4hPa Calm     18% 0.00in /  0mm 330.0 W/m2
01:10 81.1 °F /  27.3 °C 32.2 °F /  0.1 °C 29.81in /  1009.4hPa Calm     17% 0.00in /  0mm 380.0 W/m2
01:35 83.7 °F /  28.7 °C 31.1 °F /  -0.5 °C 29.81in /  1009.4hPa SSW 4.9mph /  7.9km/h 7.0mph /  11.3km/h 15% 0.00in /  0mm 485.0 W/m2
01:50 84.9 °F /  29.4 °C 30.4 °F /  -0.9 °C 29.80in /  1009hPa Calm   4.0mph /  6.4km/h 14% 0.00in /  0mm 534.0 W/m2
02:06 86.4 °F /  30.2 °C 31.5 °F /  -0.3 °C 29.80in /  1009hPa Calm     14% 0.00in /  0mm 587.0 W/m2
02:21 88.0 °F /  31.1 °C 30.9 °F /  -0.6 °C 29.80in /  1009hPa Calm     13% 0.00in /  0mm 636.0 W/m2
02:34 89.4 °F /  31.9 °C 30.2 °F /  -1 °C 29.80in /  1009hPa Calm     12% 0.00in /  0mm 670.0 W/m2
02:42 90.7 °F /  32.6 °C 31.1 °F /  -0.5 °C 29.80in /  1009hPa Calm     12% 0.00in /  0mm 701.0 W/m2
02:55 91.8 °F /  33.2 °C 32.0 °F /  0 °C 29.80in /  1009hPa Calm     12% 0.00in /  0mm 728.0 W/m2
03:02 93.0 °F /  33.9 °C 32.9 °F /  0.5 °C 29.80in /  1009hPa Calm     12% 0.00in /  0mm 754.0 W/m2
03:17 94.5 °F /  34.7 °C 36.0 °F /  2.2 °C 29.80in /  1009hPa NE 4.0mph /  6.4km/h 12.0mph /  19.3km/h 13% 0.00in /  0mm 772.0 W/m2
03:32 94.1 °F /  34.5 °C 35.8 °F /  2.1 °C 29.80in /  1009hPa NNE 4.9mph /  7.9km/h 7.0mph /  11.3km/h 13% 0.00in /  0mm 809.0 W/m2
03:42 95.4 °F /  35.2 °C 36.7 °F /  2.6 °C 29.80in /  1009hPa NNE 10.1mph /  16.3km/h 10.1mph /  16.3km/h 13% 0.00in /  0mm 835.0 W/m2
04:02 95.5 °F /  35.3 °C 36.9 °F /  2.7 °C 29.79in /  1008.7hPa North 0.9mph /  1.4km/h 12.0mph /  19.3km/h 13% 0.00in /  0mm 881.0 W/m2
04:13 96.3 °F /  35.7 °C 37.4 °F /  3 °C 29.79in /  1008.7hPa North 10.1mph /  16.3km/h 14.0mph /  22.5km/h 13% 0.00in /  0mm 896.0 W/m2
04:23 97.0 °F /  36.1 °C 37.9 °F /  3.3 °C 29.79in /  1008.7hPa NNW 11.0mph /  17.7km/h 18.0mph /  29km/h 13% 0.00in /  0mm 923.0 W/m2
04:44 98.2 °F /  36.8 °C 40.8 °F /  4.9 °C 29.79in /  1008.7hPa North 11.0mph /  17.7km/h 11.0mph /  17.7km/h 14% 0.00in /  0mm 946.0 W/m2
05:00 98.8 °F /  37.1 °C 41.4 °F /  5.2 °C 29.78in /  1008.4hPa North 11.0mph /  17.7km/h 18.0mph /  29km/h 14% 0.00in /  0mm 962.0 W/m2
05:08 99.5 °F /  37.5 °C 39.9 °F /  4.4 °C 29.78in /  1008.4hPa NNW 8.9mph /  14.3km/h 18.0mph /  29km/h 13% 0.00in /  0mm 972.0 W/m2
05:23 100.0 °F /  37.8 °C 38.3 °F /  3.5 °C 29.77in /  1008hPa NNW 11.0mph /  17.7km/h 15.0mph /  24.1km/h 12% 0.00in /  0mm 984.0 W/m2
05:37 100.2 °F /  37.9 °C 36.3 °F /  2.4 °C 29.77in /  1008hPa North 8.9mph /  14.3km/h 16.0mph /  25.7km/h 11% 0.00in /  0mm 997.0 W/m2
05:47 100.6 °F /  38.1 °C 36.5 °F /  2.5 °C 29.76in /  1007.7hPa Calm   13.0mph /  20.9km/h 11% 0.00in /  0mm 993.0 W/m2
06:09 100.8 °F /  38.2 °C 31.6 °F /  -0.2 °C 29.75in /  1007.3hPa North 8.1mph /  13km/h 17.0mph /  27.4km/h 9% 0.00in /  0mm 988.0 W/m2
06:24 102.0 °F /  38.9 °C 29.7 °F /  -1.3 °C 29.75in /  1007.3hPa Calm     8% 0.00in /  0mm 988.0 W/m2
06:35 101.5 °F /  38.6 °C 29.3 °F /  -1.5 °C 29.74in /  1007hPa Calm   6.0mph /  9.7km/h 8% 0.00in /  0mm 984.0 W/m2
06:49 102.6 °F /  39.2 °C 32.9 °F /  0.5 °C 29.74in /  1007hPa NNE 0.9mph /  1.4km/h 5.0mph /  8km/h 9% 0.00in /  0mm 972.0 W/m2
06:59 102.6 °F /  39.2 °C 30.0 °F /  -1.1 °C 29.74in /  1007hPa North 6.0mph /  9.7km/h 14.0mph /  22.5km/h 8% 0.00in /  0mm 956.0 W/m2
07:15 103.1 °F /  39.5 °C 30.4 °F /  -0.9 °C 29.73in /  1006.7hPa North 4.0mph /  6.4km/h 9.0mph /  14.5km/h 8% 0.00in /  0mm 939.0 W/m2
07:30 102.6 °F /  39.2 °C 30.0 °F /  -1.1 °C 29.72in /  1006.3hPa NNE 0.9mph /  1.4km/h 11.0mph /  17.7km/h 8% 0.00in /  0mm 918.0 W/m2
07:45 103.6 °F /  39.8 °C 27.5 °F /  -2.5 °C 29.72in /  1006.3hPa North 4.0mph /  6.4km/h 11.0mph /  17.7km/h 7% 0.00in /  0mm 888.0 W/m2
08:06 103.1 °F /  39.5 °C 23.5 °F /  -4.7 °C 29.71in /  1006hPa North 2.0mph /  3.2km/h 9.0mph /  14.5km/h 6% 0.00in /  0mm 863.0 W/m2
08:16 103.8 °F /  39.9 °C 24.1 °F /  -4.4 °C 29.70in /  1005.6hPa North 8.1mph /  13km/h 9.0mph /  14.5km/h 6% 0.00in /  0mm 830.0 W/m2
08:31 103.3 °F /  39.6 °C 23.5 °F /  -4.7 °C 29.69in /  1005.3hPa NNW 6.0mph /  9.7km/h 7.0mph /  11.3km/h 6% 0.00in /  0mm 788.0 W/m2
08:46 103.8 °F /  39.9 °C 27.7 °F /  -2.4 °C 29.69in /  1005.3hPa NW 6.9mph /  11.1km/h 15.0mph /  24.1km/h 7% 0.00in /  0mm 751.0 W/m2
09:01 104.4 °F /  40.2 °C 28.0 °F /  -2.2 °C 29.69in /  1005.3hPa NW 2.0mph /  3.2km/h 11.0mph /  17.7km/h 7% 0.00in /  0mm 703.0 W/m2
09:16 103.8 °F /  39.9 °C 27.7 °F /  -2.4 °C 29.68in /  1005hPa NW 6.9mph /  11.1km/h 11.0mph /  17.7km/h 7% 0.00in /  0mm 664.0 W/m2
09:31 103.6 °F /  39.8 °C 27.5 °F /  -2.5 °C 29.67in /  1004.6hPa NW 4.0mph /  6.4km/h 8.0mph /  12.9km/h 7% 0.00in /  0mm 626.0 W/m2
09:46 103.6 °F /  39.8 °C 27.5 °F /  -2.5 °C 29.66in /  1004.3hPa NW 6.9mph /  11.1km/h 7.0mph /  11.3km/h 7% 0.00in /  0mm 580.0 W/m2
10:01 103.3 °F /  39.6 °C 27.3 °F /  -2.6 °C 29.65in /  1003.9hPa West 4.9mph /  7.9km/h 6.0mph /  9.7km/h 7% 0.00in /  0mm 531.0 W/m2
10:22 103.5 °F /  39.7 °C 27.5 °F /  -2.5 °C 29.65in /  1003.9hPa West 6.9mph /  11.1km/h 10.0mph /  16.1km/h 7% 0.00in /  0mm 482.0 W/m2
10:32 103.3 °F /  39.6 °C 30.6 °F /  -0.8 °C 29.65in /  1003.9hPa West 2.0mph /  3.2km/h 6.0mph /  9.7km/h 8% 0.00in /  0mm 425.0 W/m2
10:47 103.1 °F /  39.5 °C 30.4 °F /  -0.9 °C 29.64in /  1003.6hPa Calm   8.0mph /  12.9km/h 8% 0.00in /  0mm 364.0 W/m2
11:02 103.5 °F /  39.7 °C 27.5 °F /  -2.5 °C 29.64in /  1003.6hPa West 2.9mph /  4.7km/h 7.0mph /  11.3km/h 7% 0.00in /  0mm 313.0 W/m2
11:17 103.3 °F /  39.6 °C 27.3 °F /  -2.6 °C 29.64in /  1003.6hPa Calm     7% 0.00in /  0mm 253.0 W/m2
11:33 103.8 °F /  39.9 °C 24.1 °F /  -4.4 °C 29.64in /  1003.6hPa Calm     6% 0.00in /  0mm 192.0 W/m2
11:48 103.6 °F /  39.8 °C 23.9 °F /  -4.5 °C 29.64in /  1003.6hPa Calm     6% 0.00in /  0mm 127.0 W/m2
11:58 102.9 °F /  39.4 °C 23.4 °F /  -4.8 °C 29.64in /  1003.6hPa West 0.9mph /  1.4km/h 1.0mph /  1.6km/h 6% 0.00in /  0mm 65.0 W/m2
12:09 102.4 °F /  39.1 °C 23.0 °F /  -5 °C 29.64in /  1003.6hPa West 2.9mph /  4.7km/h 5.0mph /  8km/h 6% 0.00in /  0mm 51.0 W/m2
12:25 101.7 °F /  38.7 °C 26.2 °F /  -3.2 °C 29.65in /  1003.9hPa Calm     7% 0.00in /  0mm 18.0 W/m2
12:40 101.5 °F /  38.6 °C 26.1 °F /  -3.3 °C 29.65in /  1003.9hPa Calm     7% 0.00in /  0mm 11.0 W/m2
12:56 100.6 °F /  38.1 °C 25.3 °F /  -3.7 °C 29.65in /  1003.9hPa Calm     7% 0.00in /  0mm 0.0 W/m2
13:06 98.8 °F /  37.1 °C 27.3 °F /  -2.6 °C 29.65in /  1003.9hPa Calm     8% 0.00in /  0mm 0.0 W/m2
13:16 97.5 °F /  36.4 °C 26.4 °F /  -3.1 °C 29.65in /  1003.9hPa Calm     8% 0.00in /  0mm 0.0 W/m2
13:31 95.7 °F /  35.4 °C 25.0 °F /  -3.9 °C 29.66in /  1004.3hPa Calm     8% 0.00in /  0mm 0.0 W/m2
13:47 94.3 °F /  34.6 °C 26.8 °F /  -2.9 °C 29.67in /  1004.6hPa Calm     9% 0.00in /  0mm 0.0 W/m2
13:57 93.6 °F /  34.2 °C 28.8 °F /  -1.8 °C 29.67in /  1004.6hPa Calm     10% 0.00in /  0mm 0.0 W/m2
14:12 94.5 °F /  34.7 °C 31.8 °F /  -0.1 °C 29.69in /  1005.3hPa Calm     11% 0.00in /  0mm 0.0 W/m2
14:27 95.5 °F /  35.3 °C 32.7 °F /  0.4 °C 29.70in /  1005.6hPa Calm     11% 0.00in /  0mm 0.0 W/m2
14:37 97.3 °F /  36.3 °C 34.0 °F /  1.1 °C 29.70in /  1005.6hPa West 6.9mph /  11.1km/h 7.0mph /  11.3km/h 11% 0.00in /  0mm 0.0 W/m2
14:47 94.3 °F /  34.6 °C 42.8 °F /  6 °C 29.71in /  1006hPa SW 14.1mph /  22.7km/h 17.0mph /  27.4km/h 17% 0.00in /  0mm 0.0 W/m2
14:59 92.3 °F /  33.5 °C 42.6 °F /  5.9 °C 29.71in /  1006hPa SSW 11.0mph /  17.7km/h 12.0mph /  19.3km/h 18% 0.00in /  0mm 0.0 W/m2
23:18 75.7 °F /  24.3 °C 47.7 °F /  8.7 °C 29.72in /  1006.3hPa Calm     37% 0.00in /  0mm 18.0 W/m2
23:28 75.7 °F /  24.3 °C 47.7 °F /  8.7 °C 29.72in /  1006.3hPa Calm     37% 0.00in /  0mm 26.0 W/m2
23:40 76.6 °F /  24.8 °C 47.7 °F /  8.7 °C 29.72in /  1006.3hPa SW 6.9mph /  11.1km/h 8.0mph /  12.9km/h 36% 0.00in /  0mm 47.0 W/m2
23:58 77.4 °F /  25.2 °C 48.4 °F /  9.1 °C 29.72in /  1006.3hPa SW 8.1mph /  13km/h 9.0mph /  14.5km/h 36% 0.00in /  0mm 109.0 W/m2
Canyon Roadhouse, Fishriver Canyon, Namibia
Compliments of Weather Underground - 2 mb